sensor_id;sensor_type;location;lat;lon;timestamp;pressure;altitude;pressure_sealevel;temperature;humidity
42111;BME280;27766;52.174;5.456;2022-09-09T00:00:55;100658.41;;;14.54;nan
42111;BME280;27766;52.174;5.456;2022-09-09T00:03:40;100660.16;;;14.49;nan
42111;BME280;27766;52.174;5.456;2022-09-09T00:06:21;100651.47;;;14.50;nan
42111;BME280;27766;52.174;5.456;2022-09-09T00:09:10;100647.13;;;14.46;nan
42111;BME280;27766;52.174;5.456;2022-09-09T00:11:52;100642.78;;;14.48;nan
42111;BME280;27766;52.174;5.456;2022-09-09T00:15:07;100641.03;;;14.49;nan
42111;BME280;27766;52.174;5.456;2022-09-09T00:17:26;100641.06;;;14.47;nan
42111;BME280;27766;52.174;5.456;2022-09-09T00:20:21;100636.72;;;14.45;nan
42111;BME280;27766;52.174;5.456;2022-09-09T00:25:42;100633.25;;;14.43;nan
42111;BME280;27766;52.174;5.456;2022-09-09T00:28:20;100632.41;;;14.40;nan
42111;BME280;27766;52.174;5.456;2022-09-09T00:30:49;100641.06;;;14.41;nan
42111;BME280;27766;52.174;5.456;2022-09-09T00:33:19;100629.78;;;14.34;nan
42111;BME280;27766;52.174;5.456;2022-09-09T00:35:52;100639.31;;;14.37;nan
42111;BME280;27766;52.174;5.456;2022-09-09T00:38:35;100634.13;;;14.29;nan
42111;BME280;27766;52.174;5.456;2022-09-09T00:43:40;100631.53;;;14.31;nan
42111;BME280;27766;52.174;5.456;2022-09-09T00:46:54;100628.06;;;14.29;nan
42111;BME280;27766;52.174;5.456;2022-09-09T00:49:15;100624.59;;;14.27;nan
42111;BME280;27766;52.174;5.456;2022-09-09T00:54:56;100627.19;;;14.19;nan
42111;BME280;27766;52.174;5.456;2022-09-09T00:57:34;100630.66;;;14.16;nan
42111;BME280;27766;52.174;5.456;2022-09-09T01:00:24;100633.28;;;14.15;nan
42111;BME280;27766;52.174;5.456;2022-09-09T01:09:00;100642.81;;;14.08;nan
42111;BME280;27766;52.174;5.456;2022-09-09T01:12:06;100641.09;;;14.04;nan
42111;BME280;27766;52.174;5.456;2022-09-09T01:17:17;100647.13;;;13.98;nan
42111;BME280;27766;52.174;5.456;2022-09-09T01:28:07;100629.78;;;13.88;nan
42111;BME280;27766;52.174;5.456;2022-09-09T01:30:38;100623.72;;;13.81;nan
42111;BME280;27766;52.174;5.456;2022-09-09T01:33:12;100623.72;;;13.83;nan
42111;BME280;27766;52.174;5.456;2022-09-09T01:35:51;100621.09;;;13.78;nan
42111;BME280;27766;52.174;5.456;2022-09-09T01:38:22;100621.09;;;13.80;nan
42111;BME280;27766;52.174;5.456;2022-09-09T01:40:51;100615.91;;;13.76;nan
42111;BME280;27766;52.174;5.456;2022-09-09T01:43:23;100615.03;;;13.73;nan
42111;BME280;27766;52.174;5.456;2022-09-09T01:45:54;100616.75;;;13.71;nan
42111;BME280;27766;52.174;5.456;2022-09-09T01:48:24;100619.34;;;13.71;nan
42111;BME280;27766;52.174;5.456;2022-09-09T01:50:51;100628.03;;;13.68;nan
42111;BME280;27766;52.174;5.456;2022-09-09T01:53:20;100610.66;;;13.56;nan
42111;BME280;27766;52.174;5.456;2022-09-09T01:56:02;100629.75;;;13.60;nan
42111;BME280;27766;52.174;5.456;2022-09-09T02:01:17;100617.63;;;13.56;nan
42111;BME280;27766;52.174;5.456;2022-09-09T02:03:52;100619.31;;;13.55;nan
42111;BME280;27766;52.174;5.456;2022-09-09T02:06:38;100616.72;;;13.51;nan
42111;BME280;27766;52.174;5.456;2022-09-09T02:09:07;100609.75;;;13.43;nan
42111;BME280;27766;52.174;5.456;2022-09-09T02:11:38;100614.97;;;13.45;nan
42111;BME280;27766;52.174;5.456;2022-09-09T02:14:08;100606.31;;;13.43;nan
42111;BME280;27766;52.174;5.456;2022-09-09T02:16:42;100610.63;;;13.39;nan
42111;BME280;27766;52.174;5.456;2022-09-09T02:19:15;100599.31;;;13.36;nan
42111;BME280;27766;52.174;5.456;2022-09-09T02:21:57;100595.00;;;13.35;nan
42111;BME280;27766;52.174;5.456;2022-09-09T02:24:29;100589.78;;;13.32;nan
42111;BME280;27766;52.174;5.456;2022-09-09T02:26:58;100607.97;;;13.32;nan
42111;BME280;27766;52.174;5.456;2022-09-09T02:29:33;100594.09;;;13.29;nan
42111;BME280;27766;52.174;5.456;2022-09-09T02:32:08;100593.22;;;13.26;nan
42111;BME280;27766;52.174;5.456;2022-09-09T02:34:43;100589.72;;;13.22;nan
42111;BME280;27766;52.174;5.456;2022-09-09T02:37:12;100601.03;;;13.27;nan
42111;BME280;27766;52.174;5.456;2022-09-09T02:39:41;100591.50;;;13.25;nan
42111;BME280;27766;52.174;5.456;2022-09-09T02:42:09;100582.81;;;13.20;nan
42111;BME280;27766;52.174;5.456;2022-09-09T02:44:37;100588.88;;;13.23;nan
42111;BME280;27766;52.174;5.456;2022-09-09T02:52:30;100591.47;;;13.20;nan
42111;BME280;27766;52.174;5.456;2022-09-09T02:55:11;100599.28;;;13.20;nan
42111;BME280;27766;52.174;5.456;2022-09-09T02:57:45;100595.81;;;13.18;nan
42111;BME280;27766;52.174;5.456;2022-09-09T03:00:14;100594.91;;;13.16;nan
42111;BME280;27766;52.174;5.456;2022-09-09T03:02:41;100594.06;;;13.17;nan
42111;BME280;27766;52.174;5.456;2022-09-09T03:05:09;100587.13;;;13.14;nan
42111;BME280;27766;52.174;5.456;2022-09-09T03:07:37;100592.31;;;13.11;nan
42111;BME280;27766;52.174;5.456;2022-09-09T03:10:04;100581.91;;;13.10;nan
42111;BME280;27766;52.174;5.456;2022-09-09T03:12:32;100590.59;;;13.12;nan
42111;BME280;27766;52.174;5.456;2022-09-09T03:15:02;100593.16;;;13.10;nan
42111;BME280;27766;52.174;5.456;2022-09-09T03:17:30;100586.22;;;13.06;nan
42111;BME280;27766;52.174;5.456;2022-09-09T03:19:58;100589.69;;;13.04;nan
42111;BME280;27766;52.174;5.456;2022-09-09T03:22:25;100594.00;;;13.02;nan
42111;BME280;27766;52.174;5.456;2022-09-09T03:24:52;100594.00;;;13.02;nan
42111;BME280;27766;52.174;5.456;2022-09-09T03:27:20;100597.47;;;13.01;nan
42111;BME280;27766;52.174;5.456;2022-09-09T03:29:47;100601.78;;;12.97;nan
42111;BME280;27766;52.174;5.456;2022-09-09T03:32:17;100587.91;;;12.93;nan
42111;BME280;27766;52.174;5.456;2022-09-09T03:34:45;100595.72;;;12.98;nan
42111;BME280;27766;52.174;5.456;2022-09-09T03:37:14;100595.72;;;12.95;nan
42111;BME280;27766;52.174;5.456;2022-09-09T03:39:41;100589.63;;;12.91;nan
42111;BME280;27766;52.174;5.456;2022-09-09T03:42:08;100595.69;;;12.93;nan
42111;BME280;27766;52.174;5.456;2022-09-09T03:44:35;100576.63;;;12.82;nan
42111;BME280;27766;52.174;5.456;2022-09-09T03:47:03;100591.34;;;12.88;nan
42111;BME280;27766;52.174;5.456;2022-09-09T03:49:30;100591.38;;;12.91;nan
42111;BME280;27766;52.174;5.456;2022-09-09T03:51:59;100583.56;;;12.89;nan
42111;BME280;27766;52.174;5.456;2022-09-09T03:54:28;100578.34;;;12.83;nan
42111;BME280;27766;52.174;5.456;2022-09-09T03:56:55;100587.91;;;12.92;nan
42111;BME280;27766;52.174;5.456;2022-09-09T03:59:22;100581.81;;;12.91;nan
42111;BME280;27766;52.174;5.456;2022-09-09T04:01:49;100577.53;;;12.92;nan
42111;BME280;27766;52.174;5.456;2022-09-09T04:04:18;100577.50;;;12.86;nan
42111;BME280;27766;52.174;5.456;2022-09-09T04:06:47;100570.56;;;12.83;nan
42111;BME280;27766;52.174;5.456;2022-09-09T04:09:15;100586.13;;;12.88;nan
42111;BME280;27766;52.174;5.456;2022-09-09T04:11:42;100588.75;;;12.86;nan
42111;BME280;27766;52.174;5.456;2022-09-09T04:14:09;100580.94;;;12.86;nan
42111;BME280;27766;52.174;5.456;2022-09-09T04:16:37;100570.53;;;12.80;nan
42111;BME280;27766;52.174;5.456;2022-09-09T04:19:05;100584.41;;;12.83;nan
42111;BME280;27766;52.174;5.456;2022-09-09T04:21:33;100575.75;;;12.83;nan
42111;BME280;27766;52.174;5.456;2022-09-09T04:24:01;100580.94;;;12.83;nan
42111;BME280;27766;52.174;5.456;2022-09-09T04:26:28;100577.47;;;12.79;nan
42111;BME280;27766;52.174;5.456;2022-09-09T04:28:55;100569.69;;;12.81;nan
42111;BME280;27766;52.174;5.456;2022-09-09T04:31:23;100567.94;;;12.80;nan
42111;BME280;27766;52.174;5.456;2022-09-09T04:33:50;100562.75;;;12.80;nan
42111;BME280;27766;52.174;5.456;2022-09-09T04:36:18;100567.09;;;12.81;nan
42111;BME280;27766;52.174;5.456;2022-09-09T04:38:46;100575.72;;;12.81;nan
42111;BME280;27766;52.174;5.456;2022-09-09T04:41:15;100574.88;;;12.84;nan
42111;BME280;27766;52.174;5.456;2022-09-09T04:43:43;100568.81;;;12.85;nan
42111;BME280;27766;52.174;5.456;2022-09-09T04:46:10;100567.09;;;12.89;nan
42111;BME280;27766;52.174;5.456;2022-09-09T04:48:38;100564.53;;;12.92;nan
42111;BME280;27766;52.174;5.456;2022-09-09T04:51:08;100559.34;;;12.93;nan
42111;BME280;27766;52.174;5.456;2022-09-09T04:53:36;100555.91;;;12.97;nan
42111;BME280;27766;52.174;5.456;2022-09-09T04:56:10;100559.34;;;12.99;nan
42111;BME280;27766;52.174;5.456;2022-09-09T04:58:39;100555.91;;;13.01;nan
42111;BME280;27766;52.174;5.456;2022-09-09T05:01:17;100550.72;;;13.02;nan
42111;BME280;27766;52.174;5.456;2022-09-09T05:03:45;100557.63;;;13.02;nan
42111;BME280;27766;52.174;5.456;2022-09-09T05:06:15;100554.16;;;12.99;nan
42111;BME280;27766;52.174;5.456;2022-09-09T05:08:43;100559.34;;;12.96;nan
42111;BME280;27766;52.174;5.456;2022-09-09T05:11:29;100565.44;;;12.98;nan
42111;BME280;27766;52.174;5.456;2022-09-09T05:13:56;100554.16;;;12.96;nan
42111;BME280;27766;52.174;5.456;2022-09-09T05:16:24;100569.78;;;13.01;nan
42111;BME280;27766;52.174;5.456;2022-09-09T05:18:51;100561.09;;;13.04;nan
42111;BME280;27766;52.174;5.456;2022-09-09T05:21:20;100550.72;;;13.04;nan
42111;BME280;27766;52.174;5.456;2022-09-09T05:23:48;100547.25;;;13.00;nan
42111;BME280;27766;52.174;5.456;2022-09-09T05:26:19;100552.47;;;13.05;nan
42111;BME280;27766;52.174;5.456;2022-09-09T05:28:47;100549.88;;;13.05;nan
42111;BME280;27766;52.174;5.456;2022-09-09T05:31:16;100552.44;;;13.08;nan
42111;BME280;27766;52.174;5.456;2022-09-09T05:33:45;100539.47;;;13.08;nan
42111;BME280;27766;52.174;5.456;2022-09-09T05:36:14;100541.19;;;13.10;nan
42111;BME280;27766;52.174;5.456;2022-09-09T05:38:43;100539.47;;;13.08;nan
42111;BME280;27766;52.174;5.456;2022-09-09T05:41:11;100542.06;;;13.08;nan
42111;BME280;27766;52.174;5.456;2022-09-09T05:43:38;100542.94;;;13.04;nan
42111;BME280;27766;52.174;5.456;2022-09-09T05:46:08;100550.72;;;13.10;nan
42111;BME280;27766;52.174;5.456;2022-09-09T05:48:40;100549.88;;;13.12;nan
42111;BME280;27766;52.174;5.456;2022-09-09T05:51:10;100547.28;;;13.11;nan
42111;BME280;27766;52.174;5.456;2022-09-09T05:53:43;100550.75;;;13.14;nan
42111;BME280;27766;52.174;5.456;2022-09-09T05:56:16;100546.44;;;13.17;nan
42111;BME280;27766;52.174;5.456;2022-09-09T05:58:46;100543.81;;;13.18;nan
42111;BME280;27766;52.174;5.456;2022-09-09T06:01:18;100537.75;;;13.14;nan
42111;BME280;27766;52.174;5.456;2022-09-09T06:03:47;100549.91;;;13.25;nan
42111;BME280;27766;52.174;5.456;2022-09-09T06:06:18;100551.66;;;13.29;nan
42111;BME280;27766;52.174;5.456;2022-09-09T06:08:49;100560.34;;;13.39;nan
42111;BME280;27766;52.174;5.456;2022-09-09T06:11:20;100561.25;;;13.47;nan
42111;BME280;27766;52.174;5.456;2022-09-09T06:13:49;100559.53;;;13.55;nan
42111;BME280;27766;52.174;5.456;2022-09-09T06:16:19;100556.94;;;13.66;nan
42111;BME280;27766;52.174;5.456;2022-09-09T06:18:47;100543.94;;;13.74;nan
42111;BME280;27766;52.174;5.456;2022-09-09T06:21:20;100546.53;;;13.86;nan
42111;BME280;27766;52.174;5.456;2022-09-09T06:23:47;100542.22;;;13.88;nan
42111;BME280;27766;52.174;5.456;2022-09-09T06:26:17;100547.41;;;13.91;nan
42111;BME280;27766;52.174;5.456;2022-09-09T06:28:46;100543.06;;;13.98;nan
42111;BME280;27766;52.174;5.456;2022-09-09T06:31:16;100547.41;;;14.01;nan
42111;BME280;27766;52.174;5.456;2022-09-09T06:33:54;100545.66;;;14.09;nan
42111;BME280;27766;52.174;5.456;2022-09-09T06:36:27;100544.75;;;14.22;nan
42111;BME280;27766;52.174;5.456;2022-09-09T06:38:55;100538.66;;;14.30;nan
42111;BME280;27766;52.174;5.456;2022-09-09T06:41:25;100537.81;;;14.32;nan
42111;BME280;27766;52.174;5.456;2022-09-09T06:43:55;100532.56;;;14.45;nan
42111;BME280;27766;52.174;5.456;2022-09-09T06:46:28;100537.75;;;14.63;nan
42111;BME280;27766;52.174;5.456;2022-09-09T06:48:56;100543.75;;;14.85;nan
42111;BME280;27766;52.174;5.456;2022-09-09T06:51:30;100539.28;;;15.09;nan
42111;BME280;27766;52.174;5.456;2022-09-09T06:54:00;100542.66;;;15.25;nan
42111;BME280;27766;52.174;5.456;2022-09-09T06:56:31;100537.41;;;15.36;nan
42111;BME280;27766;52.174;5.456;2022-09-09T06:59:01;100536.38;;;15.56;nan
42111;BME280;27766;52.174;5.456;2022-09-09T07:01:33;100539.81;;;15.62;nan
42111;BME280;27766;52.174;5.456;2022-09-09T07:04:01;100539.84;;;15.58;nan
42111;BME280;27766;52.174;5.456;2022-09-09T07:06:33;100536.31;;;15.66;nan
42111;BME280;27766;52.174;5.456;2022-09-09T07:09:08;100543.25;;;15.71;nan
42111;BME280;27766;52.174;5.456;2022-09-09T07:11:41;100548.44;;;15.72;nan
42111;BME280;27766;52.174;5.456;2022-09-09T07:14:09;100526.78;;;15.61;nan
42111;BME280;27766;52.174;5.456;2022-09-09T07:16:38;100538.00;;;15.69;nan
42111;BME280;27766;52.174;5.456;2022-09-09T07:19:05;100541.47;;;15.74;nan
42111;BME280;27766;52.174;5.456;2022-09-09T07:21:33;100537.13;;;15.73;nan
42111;BME280;27766;52.174;5.456;2022-09-09T07:24:00;100529.28;;;15.78;nan
42111;BME280;27766;52.174;5.456;2022-09-09T07:26:38;100535.34;;;15.77;nan
42111;BME280;27766;52.174;5.456;2022-09-09T07:29:06;100540.53;;;15.80;nan
42111;BME280;27766;52.174;5.456;2022-09-09T07:31:36;100539.66;;;15.86;nan
42111;BME280;27766;52.174;5.456;2022-09-09T07:34:04;100544.88;;;15.86;nan
42111;BME280;27766;52.174;5.456;2022-09-09T07:36:34;100542.22;;;15.92;nan
42111;BME280;27766;52.174;5.456;2022-09-09T07:39:10;100553.50;;;15.97;nan
42111;BME280;27766;52.174;5.456;2022-09-09T07:41:43;100554.44;;;15.87;nan
42111;BME280;27766;52.174;5.456;2022-09-09T07:44:14;100559.72;;;15.73;nan
42111;BME280;27766;52.174;5.456;2022-09-09T07:46:42;100558.88;;;15.72;nan
42111;BME280;27766;52.174;5.456;2022-09-09T07:49:09;100544.09;;;15.71;nan
42111;BME280;27766;52.174;5.456;2022-09-09T07:51:42;100539.72;;;15.78;nan
42111;BME280;27766;52.174;5.456;2022-09-09T07:54:13;100549.22;;;15.90;nan
42111;BME280;27766;52.174;5.456;2022-09-09T07:56:41;100525.75;;;15.83;nan
42111;BME280;27766;52.174;5.456;2022-09-09T07:59:09;100540.53;;;15.88;nan
42111;BME280;27766;52.174;5.456;2022-09-09T08:01:40;100551.72;;;15.99;nan
42111;BME280;27766;52.174;5.456;2022-09-09T08:04:10;100550.75;;;16.12;nan
42111;BME280;27766;52.174;5.456;2022-09-09T08:06:45;100548.88;;;16.24;nan
42111;BME280;27766;52.174;5.456;2022-09-09T08:09:13;100538.38;;;16.32;nan
42111;BME280;27766;52.174;5.456;2022-09-09T08:11:42;100553.00;;;16.46;nan
42111;BME280;27766;52.174;5.456;2022-09-09T08:14:11;100561.75;;;16.42;nan
42111;BME280;27766;52.174;5.456;2022-09-09T08:16:41;100550.41;;;16.45;nan
42111;BME280;27766;52.174;5.456;2022-09-09T08:19:09;100552.94;;;16.51;nan
42111;BME280;27766;52.174;5.456;2022-09-09T08:21:39;100564.31;;;16.45;nan
42111;BME280;27766;52.174;5.456;2022-09-09T08:24:08;100559.06;;;16.49;nan
42111;BME280;27766;52.174;5.456;2022-09-09T08:26:37;100563.44;;;16.46;nan
42111;BME280;27766;52.174;5.456;2022-09-09T08:29:06;100570.50;;;16.38;nan
42111;BME280;27766;52.174;5.456;2022-09-09T08:31:36;100572.28;;;16.33;nan
42111;BME280;27766;52.174;5.456;2022-09-09T08:34:05;100566.28;;;16.22;nan
42111;BME280;27766;52.174;5.456;2022-09-09T08:36:38;100574.97;;;16.25;nan
42111;BME280;27766;52.174;5.456;2022-09-09T08:39:06;100577.59;;;16.27;nan
42111;BME280;27766;52.174;5.456;2022-09-09T08:44:42;100586.28;;;16.26;nan
42111;BME280;27766;52.174;5.456;2022-09-09T08:48:11;100592.44;;;16.19;nan
42111;BME280;27766;52.174;5.456;2022-09-09T08:53:04;100584.56;;;16.22;nan
42111;BME280;27766;52.174;5.456;2022-09-09T08:55:46;100581.97;;;16.22;nan
42111;BME280;27766;52.174;5.456;2022-09-09T08:58:35;100581.97;;;16.22;nan
42111;BME280;27766;52.174;5.456;2022-09-09T09:04:03;100588.84;;;16.29;nan
42111;BME280;27766;52.174;5.456;2022-09-09T09:06:58;100590.63;;;16.27;nan
42111;BME280;27766;52.174;5.456;2022-09-09T09:09:41;100579.34;;;16.25;nan
42111;BME280;27766;52.174;5.456;2022-09-09T09:12:16;100591.41;;;16.37;nan
42111;BME280;27766;52.174;5.456;2022-09-09T09:14:47;100578.41;;;16.29;nan
42111;BME280;27766;52.174;5.456;2022-09-09T09:17:18;100590.53;;;16.35;nan
42111;BME280;27766;52.174;5.456;2022-09-09T09:19:48;100599.19;;;16.43;nan
42111;BME280;27766;52.174;5.456;2022-09-09T09:22:59;100603.56;;;16.42;nan
42111;BME280;27766;52.174;5.456;2022-09-09T09:25:31;100600.94;;;16.41;nan
42111;BME280;27766;52.174;5.456;2022-09-09T09:30:49;100598.44;;;16.30;nan
42111;BME280;27766;52.174;5.456;2022-09-09T09:33:23;100598.50;;;16.24;nan
42111;BME280;27766;52.174;5.456;2022-09-09T09:35:54;100603.69;;;16.25;nan
42111;BME280;27766;52.174;5.456;2022-09-09T09:38:23;100605.47;;;16.22;nan
42111;BME280;27766;52.174;5.456;2022-09-09T09:41:13;100594.97;;;16.26;nan
42111;BME280;27766;52.174;5.456;2022-09-09T09:43:41;100600.16;;;16.31;nan
42111;BME280;27766;52.174;5.456;2022-09-09T09:46:22;100589.75;;;16.29;nan
42111;BME280;27766;52.174;5.456;2022-09-09T09:49:04;100602.72;;;16.39;nan
42111;BME280;27766;52.174;5.456;2022-09-09T09:51:33;100594.91;;;16.36;nan
42111;BME280;27766;52.174;5.456;2022-09-09T09:56:41;100593.94;;;16.44;nan
42111;BME280;27766;52.174;5.456;2022-09-09T09:59:42;100595.72;;;16.42;nan
42111;BME280;27766;52.174;5.456;2022-09-09T10:02:24;100590.47;;;16.44;nan
42111;BME280;27766;52.174;5.456;2022-09-09T10:07:42;100581.69;;;16.51;nan
42111;BME280;27766;52.174;5.456;2022-09-09T10:10:20;100589.44;;;16.60;nan
42111;BME280;27766;52.174;5.456;2022-09-09T10:18:45;100594.66;;;16.60;nan
42111;BME280;27766;52.174;5.456;2022-09-09T10:24:13;100586.75;;;16.64;nan
42111;BME280;27766;52.174;5.456;2022-09-09T10:27:03;100585.06;;;16.61;nan
42111;BME280;27766;52.174;5.456;2022-09-09T10:35:04;100595.56;;;16.58;nan
42111;BME280;27766;52.174;5.456;2022-09-09T10:54:24;100595.56;;;16.55;nan
42111;BME280;27766;52.174;5.456;2022-09-09T10:56:57;100599.09;;;16.52;nan
42111;BME280;27766;52.174;5.456;2022-09-09T10:59:29;100600.88;;;16.49;nan
42111;BME280;27766;52.174;5.456;2022-09-09T11:02:27;100603.53;;;16.41;nan
42111;BME280;27766;52.174;5.456;2022-09-09T11:05:02;100604.31;;;16.52;nan
42111;BME280;27766;52.174;5.456;2022-09-09T11:07:58;100593.06;;;16.45;nan
42111;BME280;27766;52.174;5.456;2022-09-09T11:10:48;100592.16;;;16.48;nan
42111;BME280;27766;52.174;5.456;2022-09-09T11:13:26;100596.34;;;16.65;nan
42111;BME280;27766;52.174;5.456;2022-09-09T11:16:04;100582.94;;;16.96;nan
42111;BME280;27766;52.174;5.456;2022-09-09T11:18:36;100587.03;;;17.17;nan
42111;BME280;27766;52.174;5.456;2022-09-09T11:21:19;100582.31;;;17.42;nan
42111;BME280;27766;52.174;5.456;2022-09-09T11:23:53;100581.19;;;17.60;nan
42111;BME280;27766;52.174;5.456;2022-09-09T11:26:37;100573.13;;;17.74;nan
42111;BME280;27766;52.174;5.456;2022-09-09T11:32:06;100578.16;;;17.86;nan
42111;BME280;27766;52.174;5.456;2022-09-09T11:35:04;100571.09;;;17.90;nan
42111;BME280;27766;52.174;5.456;2022-09-09T11:40:30;100574.44;;;17.44;nan
42111;BME280;27766;52.174;5.456;2022-09-09T11:45:31;100568.41;;;17.38;nan
42111;BME280;27766;52.174;5.456;2022-09-09T11:48:04;100577.13;;;17.40;nan
42111;BME280;27766;52.174;5.456;2022-09-09T11:50:37;100561.53;;;17.33;nan
42111;BME280;27766;52.174;5.456;2022-09-09T11:55:43;100573.56;;;17.45;nan
42111;BME280;27766;52.174;5.456;2022-09-09T12:00:42;100576.03;;;17.54;nan
42111;BME280;27766;52.174;5.456;2022-09-09T12:06:28;100576.19;;;17.45;nan
42111;BME280;27766;52.174;5.456;2022-09-09T12:09:13;100572.81;;;17.38;nan
42111;BME280;27766;52.174;5.456;2022-09-09T12:11:43;100575.63;;;17.22;nan
42111;BME280;27766;52.174;5.456;2022-09-09T12:14:23;100566.97;;;17.19;nan
42111;BME280;27766;52.174;5.456;2022-09-09T12:16:50;100579.28;;;17.11;nan
42111;BME280;27766;52.174;5.456;2022-09-09T12:19:20;100576.81;;;16.98;nan
42111;BME280;27766;52.174;5.456;2022-09-09T12:22:05;100573.38;;;16.96;nan
42111;BME280;27766;52.174;5.456;2022-09-09T12:24:43;100560.31;;;16.91;nan
42111;BME280;27766;52.174;5.456;2022-09-09T12:27:22;100575.13;;;16.94;nan
42111;BME280;27766;52.174;5.456;2022-09-09T12:30:16;100580.44;;;16.85;nan
42111;BME280;27766;52.174;5.456;2022-09-09T12:32:44;100580.56;;;16.74;nan
42111;BME280;27766;52.174;5.456;2022-09-09T12:35:21;100569.28;;;16.70;nan
42111;BME280;27766;52.174;5.456;2022-09-09T12:37:53;100572.78;;;16.69;nan
42111;BME280;27766;52.174;5.456;2022-09-09T12:40:29;100564.81;;;16.78;nan
42111;BME280;27766;52.174;5.456;2022-09-09T12:42:56;100563.06;;;16.81;nan
42111;BME280;27766;52.174;5.456;2022-09-09T12:45:25;100572.50;;;16.91;nan
42111;BME280;27766;52.174;5.456;2022-09-09T12:50:28;100558.38;;;17.07;nan
42111;BME280;27766;52.174;5.456;2022-09-09T12:53:02;100558.13;;;17.28;nan
42111;BME280;27766;52.174;5.456;2022-09-09T12:55:36;100556.19;;;17.40;nan
42111;BME280;27766;52.174;5.456;2022-09-09T12:58:06;100550.91;;;17.45;nan
42111;BME280;27766;52.174;5.456;2022-09-09T13:00:34;100553.50;;;17.44;nan
42111;BME280;27766;52.174;5.456;2022-09-09T13:03:23;100550.75;;;17.53;nan
42111;BME280;27766;52.174;5.456;2022-09-09T13:05:51;100555.13;;;17.54;nan
42111;BME280;27766;52.174;5.456;2022-09-09T13:08:19;100555.91;;;17.61;nan
42111;BME280;27766;52.174;5.456;2022-09-09T13:11:00;100554.91;;;17.68;nan
42111;BME280;27766;52.174;5.456;2022-09-09T13:13:36;100561.69;;;17.80;nan
42111;BME280;27766;52.174;5.456;2022-09-09T13:16:06;100557.91;;;17.99;nan
42111;BME280;27766;52.174;5.456;2022-09-09T13:18:37;100557.72;;;18.12;nan
42111;BME280;27766;52.174;5.456;2022-09-09T13:21:07;100555.34;;;18.45;nan
42111;BME280;27766;52.174;5.456;2022-09-09T13:23:37;100554.81;;;18.73;nan
42111;BME280;27766;52.174;5.456;2022-09-09T13:26:21;100556.28;;;18.86;nan
42111;BME280;27766;52.174;5.456;2022-09-09T13:28:50;100560.94;;;19.14;nan
42111;BME280;27766;52.174;5.456;2022-09-09T13:31:28;100555.59;;;19.19;nan
42111;BME280;27766;52.174;5.456;2022-09-09T13:33:58;100561.09;;;19.08;nan
42111;BME280;27766;52.174;5.456;2022-09-09T13:36:34;100550.78;;;18.98;nan
42111;BME280;27766;52.174;5.456;2022-09-09T13:39:03;100555.41;;;18.86;nan
42111;BME280;27766;52.174;5.456;2022-09-09T13:41:42;100559.81;;;18.83;nan
42111;BME280;27766;52.174;5.456;2022-09-09T13:44:20;100560.19;;;18.65;nan
42111;BME280;27766;52.174;5.456;2022-09-09T13:49:36;100555.84;;;18.17;nan
42111;BME280;27766;52.174;5.456;2022-09-09T13:52:10;100538.56;;;18.07;nan
42111;BME280;27766;52.174;5.456;2022-09-09T13:54:57;100540.34;;;18.04;nan
42111;BME280;27766;52.174;5.456;2022-09-09T13:57:26;100549.84;;;18.10;nan
42111;BME280;27766;52.174;5.456;2022-09-09T13:59:54;100547.22;;;18.12;nan
42111;BME280;27766;52.174;5.456;2022-09-09T14:02:32;100556.78;;;18.14;nan
42111;BME280;27766;52.174;5.456;2022-09-09T14:05:00;100556.00;;;18.08;nan
42111;BME280;27766;52.174;5.456;2022-09-09T14:07:27;100555.22;;;18.04;nan
42111;BME280;27766;52.174;5.456;2022-09-09T14:09:56;100546.59;;;17.97;nan
42111;BME280;27766;52.174;5.456;2022-09-09T14:12:23;100552.66;;;17.99;nan
42111;BME280;27766;52.174;5.456;2022-09-09T14:14:51;100555.41;;;17.90;nan
42111;BME280;27766;52.174;5.456;2022-09-09T14:17:18;100544.94;;;17.92;nan
42111;BME280;27766;52.174;5.456;2022-09-09T14:19:45;100551.00;;;17.95;nan
42111;BME280;27766;52.174;5.456;2022-09-09T14:22:13;100547.59;;;17.88;nan
42111;BME280;27766;52.174;5.456;2022-09-09T14:24:40;100533.72;;;17.83;nan
42111;BME280;27766;52.174;5.456;2022-09-09T14:27:10;100536.34;;;17.82;nan
42111;BME280;27766;52.174;5.456;2022-09-09T14:29:37;100534.63;;;17.81;nan
42111;BME280;27766;52.174;5.456;2022-09-09T14:32:05;100543.25;;;17.86;nan
42111;BME280;27766;52.174;5.456;2022-09-09T14:34:36;100537.22;;;17.82;nan
42111;BME280;27766;52.174;5.456;2022-09-09T14:37:04;100531.25;;;17.74;nan
42111;BME280;27766;52.174;5.456;2022-09-09T14:39:34;100547.00;;;17.71;nan
42111;BME280;27766;52.174;5.456;2022-09-09T14:42:04;100544.50;;;17.63;nan
42111;BME280;27766;52.174;5.456;2022-09-09T14:44:32;100548.03;;;17.59;nan
42111;BME280;27766;52.174;5.456;2022-09-09T14:47:00;100534.22;;;17.52;nan
42111;BME280;27766;52.174;5.456;2022-09-09T14:49:28;100550.84;;;17.50;nan
42111;BME280;27766;52.174;5.456;2022-09-09T14:51:55;100540.53;;;17.37;nan
42111;BME280;27766;52.174;5.456;2022-09-09T14:54:22;100536.28;;;17.30;nan
42111;BME280;27766;52.174;5.456;2022-09-09T14:56:49;100530.19;;;17.28;nan
42111;BME280;27766;52.174;5.456;2022-09-09T14:59:17;100521.59;;;17.21;nan
42111;BME280;27766;52.174;5.456;2022-09-09T15:01:44;100534.66;;;17.23;nan
42111;BME280;27766;52.174;5.456;2022-09-09T15:04:12;100522.50;;;17.19;nan
42111;BME280;27766;52.174;5.456;2022-09-09T15:06:41;100522.44;;;17.23;nan
42111;BME280;27766;52.174;5.456;2022-09-09T15:09:11;100517.94;;;17.32;nan
42111;BME280;27766;52.174;5.456;2022-09-09T15:11:39;100527.31;;;17.47;nan
42111;BME280;27766;52.174;5.456;2022-09-09T15:14:08;100534.16;;;17.55;nan
42111;BME280;27766;52.174;5.456;2022-09-09T15:16:36;100526.16;;;17.65;nan
42111;BME280;27766;52.174;5.456;2022-09-09T15:19:03;100531.31;;;17.69;nan
42111;BME280;27766;52.174;5.456;2022-09-09T15:21:34;100533.75;;;17.80;nan